Terminal Aerodrome Forecast
Issued by NWS Wilmington, OH

Current Version | Previous Version | Text Only | Print | Product List | Glossary Off
Versions: 1 2 3 4 5 6 7 8 9 10 11 12 13 14 15 16 17 18 19 20

780
FTUS41 KILN 202340
TAFDAY
TAF
KDAY 202340Z 2100/2124 13006KT P6SM BKN250
     FM211400 20012KT P6SM SCT040 BKN250
     FM212100 20012KT P6SM VCSH OVC040=

USA.gov is the U.S. government's official web portal to all federal, state and local government web resources and services.